Time;durP1;ratioP1;P1;durP2;ratioP2;P2;SDS_P1;SDS_P2;PMS_P1;PMS_P2;Temp;Humidity;BMP_temperature;BMP_pressure;BME280_temperature;BME280_humidity;BME280_pressure;Samples;Min_cycle;Max_cycle;Signal;HPM_P1;HPM_P2
2021/08/15 00:02:15;;;;;;;;;0.00;0.00;;;;;23.40;45.20;101335.91;6089099;23;45372;-80
2021/08/15 00:04:40;;;;;;;;;0.00;0.00;;;;;23.64;45.43;101370.44;6089728;23;45297;-83
2021/08/15 00:07:06;;;;;;;;;1.75;0.00;;;;;23.56;45.23;101360.13;6089186;23;45536;-82
2021/08/15 00:09:31;;;;;;;;;0.00;0.00;;;;;23.44;45.75;101337.50;6087663;23;45263;-81
2021/08/15 00:11:57;;;;;;;;;0.00;0.00;;;;;23.52;45.80;101362.00;6089022;23;45156;-82
2021/08/15 00:14:22;;;;;;;;;0.00;0.00;;;;;23.43;46.12;101357.03;6089792;23;45207;-83
2021/08/15 00:16:48;;;;;;;;;0.00;0.00;;;;;23.40;46.08;101358.00;6089367;23;45475;-82
2021/08/15 00:19:13;;;;;;;;;0.00;0.00;;;;;23.40;46.47;101365.97;6089694;23;45308;-82
2021/08/15 00:21:39;;;;;;;;;0.00;0.00;;;;;23.00;46.47;101299.16;6089061;23;45657;-81
2021/08/15 00:24:05;;;;;;;;;0.00;0.00;;;;;23.28;46.11;101337.16;6088144;23;45755;-82
2021/08/15 00:26:31;;;;;;;;;0.00;0.00;;;;;23.21;46.32;101340.97;6089446;23;45380;-82
2021/08/15 00:28:57;;;;;;;;;0.00;0.00;;;;;23.08;46.14;101319.25;6089394;23;45321;-82
2021/08/15 00:31:26;;;;;;;;;0.25;0.25;;;;;22.80;46.26;101272.44;6089617;23;45335;-81
2021/08/15 00:33:52;;;;;;;;;0.00;0.00;;;;;23.17;45.86;101326.91;6089341;23;45540;-82
2021/08/15 00:36:17;;;;;;;;;0.50;0.50;;;;;23.22;45.50;101343.56;6088975;23;45961;-82
2021/08/15 00:38:42;;;;;;;;;0.00;0.00;;;;;23.27;46.53;101348.69;6089019;23;45394;-82
2021/08/15 00:41:08;;;;;;;;;0.00;0.00;;;;;23.21;46.47;101351.59;6089114;23;45294;-82
2021/08/15 00:43:33;;;;;;;;;0.75;0.75;;;;;23.15;47.11;101353.53;6089271;23;45227;-82
2021/08/15 00:45:58;;;;;;;;;0.00;0.00;;;;;22.86;47.31;101318.25;6088687;23;46189;-82
2021/08/15 00:48:24;;;;;;;;;0.00;0.00;;;;;22.89;47.32;101341.16;6089362;23;45202;-82
2021/08/15 00:50:49;;;;;;;;;0.25;0.25;;;;;23.01;47.05;101358.44;6089078;23;45344;-82
2021/08/15 00:53:15;;;;;;;;;0.00;0.00;;;;;22.78;47.08;101329.09;6089252;23;45357;-81
2021/08/15 00:55:41;;;;;;;;;0.00;0.00;;;;;22.83;46.91;101342.22;6089196;23;45365;-81
2021/08/15 00:58:07;;;;;;;;;0.00;0.00;;;;;22.94;47.78;101352.47;6087574;23;45350;-81
2021/08/15 01:00:34;;;;;;;;;0.75;0.00;;;;;22.87;47.61;101338.53;6089105;23;45439;-81
2021/08/15 01:02:59;;;;;;;;;0.50;0.00;;;;;22.73;47.56;101303.66;6087038;23;45422;-81
2021/08/15 01:05:25;;;;;;;;;0.00;0.00;;;;;22.73;46.99;101308.94;6088308;23;45979;-81
2021/08/15 01:07:50;;;;;;;;;0.25;0.00;;;;;22.64;47.19;101315.44;6088984;23;45258;-81
2021/08/15 01:10:17;;;;;;;;;0.00;0.00;;;;;22.69;47.39;101344.47;6089207;23;45221;-81
2021/08/15 01:12:47;;;;;;;;;1.00;1.00;;;;;22.12;47.41;101285.22;6161253;22;45246;-81
2021/08/15 01:15:13;;;;;;;;;0.00;0.00;;;;;22.53;47.41;101342.28;6244017;22;46234;-81
2021/08/15 01:17:40;;;;;;;;;0.00;0.00;;;;;22.51;47.59;101331.72;6244371;22;45341;-81
2021/08/15 01:20:06;;;;;;;;;0.00;0.00;;;;;22.45;48.07;101313.34;6241916;22;45314;-81
2021/08/15 01:22:42;;;;;;;;;0.00;0.00;;;;;22.64;48.27;101331.34;6244567;22;45320;-80
2021/08/15 01:25:08;;;;;;;;;0.00;0.00;;;;;22.64;48.43;101326.91;6243969;22;45545;-81
2021/08/15 01:27:42;;;;;;;;;0.25;0.25;;;;;22.46;47.92;101287.69;6243628;22;45289;-81
2021/08/15 01:30:11;;;;;;;;;0.00;0.00;;;;;22.67;48.23;101323.28;6243386;22;45333;-81
2021/08/15 01:32:39;;;;;;;;;0.00;0.00;;;;;22.64;48.20;101324.25;6241634;22;45331;-80
2021/08/15 01:35:05;;;;;;;;;0.25;0.00;;;;;22.64;48.33;101326.03;6243628;22;45276;-80
2021/08/15 01:37:31;;;;;;;;;0.00;0.00;;;;;22.64;48.90;101326.91;6244265;22;45285;-79
2021/08/15 01:40:01;;;;;;;;;2.00;0.00;;;;;22.64;48.27;101320.75;6244555;22;45292;-82
2021/08/15 01:42:27;;;;;;;;;0.00;0.00;;;;;22.48;49.31;101307.09;6243928;22;45455;-82
2021/08/15 01:44:52;;;;;;;;;1.00;1.00;;;;;22.60;48.90;101319.97;6243912;22;46045;-82
2021/08/15 01:47:18;;;;;;;;;0.00;0.00;;;;;22.65;48.57;101327.78;6243000;22;47227;-81
2021/08/15 01:49:43;;;;;;;;;0.00;0.00;;;;;22.63;48.90;101319.88;6244191;22;45298;-81
2021/08/15 01:52:09;;;;;;;;;0.00;0.00;;;;;22.54;49.26;101312.16;6243986;22;45423;-82
2021/08/15 01:54:34;;;;;;;;;0.00;0.00;;;;;22.60;49.15;101313.81;6243502;22;46180;-82
2021/08/15 01:57:00;;;;;;;;;0.00;0.00;;;;;22.55;49.29;101313.03;6243695;22;45243;-82
2021/08/15 01:59:27;;;;;;;;;0.00;0.00;;;;;22.39;49.39;101295.00;6243702;22;51964;-82
2021/08/15 02:01:52;;;;;;;;;0.00;0.00;;;;;22.39;49.35;101303.78;6243226;22;45372;-82
2021/08/15 02:04:18;;;;;;;;;1.00;0.00;;;;;22.34;49.99;101297.78;6243873;22;45221;-82
2021/08/15 02:06:43;;;;;;;;;1.00;0.00;;;;;22.39;49.59;101310.91;6243541;22;45301;-82
2021/08/15 02:09:08;;;;;;;;;0.75;0.00;;;;;22.36;50.06;101298.59;6241548;22;45305;-82
2021/08/15 02:11:34;;;;;;;;;0.00;0.00;;;;;22.34;50.17;101296.91;6243652;22;45649;-82
2021/08/15 02:13:59;;;;;;;;;0.00;0.00;;;;;21.96;49.79;101238.91;6117899;23;46299;-82
2021/08/15 02:16:24;;;;;;;;;1.00;1.00;;;;;22.32;50.32;101298.75;6117402;23;50644;-82
2021/08/15 02:18:50;;;;;;;;;0.00;0.00;;;;;22.30;50.06;101295.28;6118313;23;45562;-82
2021/08/15 02:21:15;;;;;;;;;0.00;0.00;;;;;22.14;50.24;101269.22;6118105;23;45379;-82
2021/08/15 02:23:40;;;;;;;;;1.00;0.00;;;;;22.18;50.34;101283.28;6090460;22;51012;-84
2021/08/15 02:26:05;;;;;;;;;0.00;0.00;;;;;21.97;50.88;101244.16;6116585;23;45366;-84
2021/08/15 02:28:31;;;;;;;;;1.00;0.00;;;;;21.83;50.64;101214.53;6090730;22;58305;-85
2021/08/15 02:30:56;;;;;;;;;1.00;0.25;;;;;21.77;50.92;101210.31;6117308;23;45384;-84
2021/08/15 02:33:21;;;;;;;;;0.00;0.00;;;;;21.93;51.10;101236.34;6117018;23;52454;-84
2021/08/15 02:35:47;;;;;;;;;0.00;0.00;;;;;22.12;51.14;101271.09;6090648;22;57015;-84
2021/08/15 02:38:12;;;;;;;;;0.00;0.00;;;;;21.84;50.82;101216.31;6117968;23;45335;-84
2021/08/15 02:40:38;;;;;;;;;1.00;0.00;;;;;22.13;50.84;101273.69;6117372;23;45501;-84
2021/08/15 02:43:04;;;;;;;;;0.00;0.00;;;;;22.13;50.60;101286.94;6090665;23;48386;-83
2021/08/15 02:45:29;;;;;;;;;0.00;0.00;;;;;21.85;51.21;101229.50;6117227;23;45295;-83
2021/08/15 02:47:54;;;;;;;;;0.00;0.00;;;;;22.09;51.26;101272.06;6117370;23;45274;-83
2021/08/15 02:50:21;;;;;;;;;0.00;0.00;;;;;22.07;51.18;101271.22;6117306;23;45192;-83
2021/08/15 02:52:46;;;;;;;;;0.00;0.00;;;;;21.86;51.72;101241.81;6117573;23;46162;-83
2021/08/15 02:55:12;;;;;;;;;0.00;0.00;;;;;22.06;51.74;101261.56;6117521;23;45271;-82
2021/08/15 02:57:38;;;;;;;;;0.00;0.00;;;;;21.97;51.55;101252.09;6117305;23;45362;-82
2021/08/15 03:00:05;;;;;;;;;0.00;0.00;;;;;22.02;51.89;101260.75;6117737;23;45310;-82
2021/08/15 03:02:31;;;;;;;;;0.00;0.00;;;;;21.95;51.49;101256.56;6092636;22;48525;-82
2021/08/15 03:04:56;;;;;;;;;0.75;0.00;;;;;21.84;52.11;101245.44;6092888;23;45348;-82
2021/08/15 03:07:23;;;;;;;;;0.00;0.00;;;;;21.83;52.12;101249.88;6118881;23;50915;-82
2021/08/15 03:09:48;;;;;;;;;0.00;0.00;;;;;21.29;52.01;101172.00;6119350;23;45417;-82
2021/08/15 03:12:13;;;;;;;;;0.00;0.00;;;;;21.70;52.45;101243.16;6110846;23;45378;-82
2021/08/15 03:14:39;;;;;;;;;1.00;0.00;;;;;21.66;51.97;101234.47;6087513;23;45500;-82
2021/08/15 03:17:08;;;;;;;;;0.00;0.00;;;;;21.63;52.45;101238.06;6090030;23;45413;-82
2021/08/15 03:19:37;;;;;;;;;0.00;0.00;;;;;21.73;52.74;101241.31;6090290;23;45418;-82
2021/08/15 03:22:04;;;;;;;;;0.00;0.00;;;;;21.72;52.44;101236.94;6090126;23;46488;-82
2021/08/15 03:24:30;;;;;;;;;0.00;0.00;;;;;21.23;52.85;101157.19;6089826;23;45392;-82
2021/08/15 03:26:55;;;;;;;;;0.00;0.00;;;;;21.60;52.76;101222.28;6089497;23;45338;-82
2021/08/15 03:29:20;;;;;;;;;0.00;0.00;;;;;21.46;52.64;101209.44;6089906;23;45286;-82
2021/08/15 03:31:46;;;;;;;;;0.50;0.00;;;;;21.60;52.77;101242.59;6089209;23;45417;-82
2021/08/15 03:34:12;;;;;;;;;0.00;0.00;;;;;21.32;52.99;101207.22;6090082;23;45230;-83
2021/08/15 03:36:38;;;;;;;;;0.00;0.00;;;;;21.25;53.34;101195.91;6088961;23;45195;-82
2021/08/15 03:39:05;;;;;;;;;0.00;0.00;;;;;21.31;52.99;101216.03;6090127;23;45231;-83
2021/08/15 03:41:30;;;;;;;;;0.00;0.00;;;;;21.07;53.43;101196.47;6089570;23;45384;-82
2021/08/15 03:43:56;;;;;;;;;0.00;0.00;;;;;21.33;53.25;101246.00;6089286;23;45340;-82
2021/08/15 03:46:22;;;;;;;;;1.50;0.00;;;;;21.32;53.99;101240.75;6089994;23;45415;-82
2021/08/15 03:48:48;;;;;;;;;0.00;0.00;;;;;21.05;53.58;101195.63;6090376;23;45366;-83
2021/08/15 03:51:13;;;;;;;;;0.00;0.00;;;;;21.32;54.24;101240.75;6089603;23;45565;-82
2021/08/15 03:53:38;;;;;;;;;0.00;0.00;;;;;21.12;53.65;101206.00;6089765;23;45345;-82
2021/08/15 03:56:04;;;;;;;;;1.00;0.00;;;;;21.24;53.78;101210.06;6089844;23;45337;-83
2021/08/15 03:58:29;;;;;;;;;0.00;0.00;;;;;21.32;54.37;101227.50;6089350;23;45493;-82
2021/08/15 04:00:56;;;;;;;;;0.00;0.00;;;;;21.34;53.95;101237.16;6089630;23;45377;-82
2021/08/15 04:03:21;;;;;;;;;0.50;0.50;;;;;21.04;53.98;101192.09;6087613;23;45442;-82
2021/08/15 04:05:47;;;;;;;;;0.00;0.00;;;;;21.14;54.32;101212.09;6089737;23;45365;-82
2021/08/15 04:08:13;;;;;;;;;0.00;0.00;;;;;21.35;54.51;101238.03;6087650;23;45498;-82
2021/08/15 04:10:38;;;;;;;;;0.00;0.00;;;;;20.96;54.36;101165.88;6089840;23;45382;-81
2021/08/15 04:13:04;;;;;;;;;0.00;0.00;;;;;20.61;54.49;101105.06;6088473;23;45340;-82
2021/08/15 04:15:30;;;;;;;;;0.25;0.25;;;;;21.33;54.01;101234.53;6089716;23;45345;-82
2021/08/15 04:17:55;;;;;;;;;0.50;0.00;;;;;20.99;54.18;101180.78;6089750;23;45549;-82
2021/08/15 04:20:21;;;;;;;;;0.25;0.25;;;;;20.91;53.98;101181.00;6089553;23;45392;-81
2021/08/15 04:22:47;;;;;;;;;0.00;0.00;;;;;20.82;54.44;101181.25;6087794;23;45290;-82
2021/08/15 04:25:12;;;;;;;;;0.00;0.00;;;;;21.05;54.67;101217.66;6089946;23;45364;-82
2021/08/15 04:27:38;;;;;;;;;0.00;0.00;;;;;20.93;54.84;101183.59;6087634;23;45450;-82
2021/08/15 04:30:06;;;;;;;;;0.00;0.00;;;;;20.98;55.45;101192.28;6089698;23;45320;-81
2021/08/15 04:32:31;;;;;;;;;0.00;0.00;;;;;20.59;54.79;101135.09;6087783;23;45282;-82
2021/08/15 04:34:56;;;;;;;;;1.75;0.50;;;;;20.95;55.24;101195.88;6089630;23;45236;-82
2021/08/15 04:37:22;;;;;;;;;0.00;0.00;;;;;20.88;55.37;101186.34;6090073;23;45182;-82
2021/08/15 04:39:47;;;;;;;;;1.00;0.00;;;;;20.74;55.35;101177.00;6089412;23;45289;-82
2021/08/15 04:42:13;;;;;;;;;1.00;0.00;;;;;20.83;55.86;101204.13;6087187;23;45444;-83
2021/08/15 04:44:38;;;;;;;;;0.50;0.25;;;;;20.64;55.95;101162.28;6089529;23;45274;-82
2021/08/15 04:47:04;;;;;;;;;0.00;0.00;;;;;20.67;56.05;101161.34;6089849;23;45398;-82
2021/08/15 04:49:30;;;;;;;;;0.00;0.00;;;;;20.82;55.90;101174.16;6088730;23;46259;-82
2021/08/15 04:51:55;;;;;;;;;1.00;0.00;;;;;20.71;55.66;101155.06;6089518;23;45556;-82
2021/08/15 04:54:28;;;;;;;;;0.00;0.00;;;;;20.98;55.41;101198.44;6089582;23;45330;-82
2021/08/15 04:56:58;;;;;;;;;0.00;0.00;;;;;20.93;55.64;101208.28;6087276;23;45493;-82
2021/08/15 04:59:24;;;;;;;;;0.00;0.00;;;;;20.79;55.80;101178.69;6088821;23;47531;-83
2021/08/15 05:01:49;;;;;;;;;0.00;0.00;;;;;20.68;55.99;101152.50;6089282;23;45226;-82
2021/08/15 05:04:15;;;;;;;;;0.00;0.00;;;;;20.98;55.96;101198.44;6089472;23;45381;-82
2021/08/15 05:06:41;;;;;;;;;0.00;0.00;;;;;20.51;55.94;101120.31;6089709;23;45521;-82
2021/08/15 05:09:06;;;;;;;;;1.00;1.00;;;;;20.99;55.99;101200.19;6088978;23;46065;-82
2021/08/15 05:11:32;;;;;;;;;0.00;0.00;;;;;20.44;55.96;101107.31;6088745;23;45179;-82
2021/08/15 05:13:57;;;;;;;;;0.75;0.00;;;;;21.01;56.07;101202.78;6088956;23;45147;-82
2021/08/15 05:16:23;;;;;;;;;0.00;0.00;;;;;20.96;55.66;101192.34;6088024;23;45417;-83
2021/08/15 05:18:48;;;;;;;;;0.00;0.00;;;;;20.74;55.54;101147.91;6086981;23;48453;-82
2021/08/15 05:21:13;;;;;;;;;0.00;0.00;;;;;21.04;55.78;101192.09;6089113;23;45269;-83
2021/08/15 05:23:39;;;;;;;;;0.00;0.00;;;;;21.16;55.76;101205.91;6089042;23;45759;-82
2021/08/15 05:26:04;;;;;;;;;0.00;0.00;;;;;21.21;55.70;101204.88;6089699;23;45276;-82
2021/08/15 05:28:29;;;;;;;;;0.75;0.00;;;;;21.00;56.07;101162.22;6089063;23;46677;-83
2021/08/15 05:30:55;;;;;;;;;0.00;0.00;;;;;21.12;55.59;101182.19;6087238;23;45611;-82
2021/08/15 05:33:20;;;;;;;;;0.00;0.00;;;;;20.87;55.35;101137.88;6089270;23;45455;-82
2021/08/15 05:35:46;;;;;;;;;0.00;0.00;;;;;21.25;55.46;101197.69;6089463;23;45242;-82
2021/08/15 05:38:11;;;;;;;;;0.00;0.00;;;;;21.29;55.58;101198.47;6088780;23;46583;-81
2021/08/15 05:40:36;;;;;;;;;0.00;0.00;;;;;21.15;55.63;101194.44;6088840;23;45266;-81
2021/08/15 05:43:02;;;;;;;;;1.00;0.00;;;;;20.79;56.13;101161.00;6089001;23;45242;-81
2021/08/15 05:45:28;;;;;;;;;0.00;0.00;;;;;20.73;55.99;101161.16;6088245;23;45356;-82
2021/08/15 05:47:54;;;;;;;;;1.00;1.00;;;;;20.23;56.20;101089.34;6086646;23;48021;-81
2021/08/15 05:50:19;;;;;;;;;0.00;0.00;;;;;20.64;56.19;101157.88;6088617;23;45698;-81
2021/08/15 05:52:44;;;;;;;;;0.00;0.00;;;;;20.81;56.43;101172.41;6089594;23;45368;-82
2021/08/15 05:55:11;;;;;;;;;1.00;0.00;;;;;20.87;56.13;101179.31;6088350;23;45262;-81
2021/08/15 05:57:36;;;;;;;;;0.00;0.00;;;;;20.95;56.54;101192.38;6088646;23;46424;-81
2021/08/15 06:00:04;;;;;;;;;0.00;0.00;;;;;20.51;56.25;101117.69;6088846;23;45373;-82
2021/08/15 06:02:29;;;;;;;;;0.00;0.00;;;;;21.11;56.66;101204.28;6088687;23;45258;-82
2021/08/15 06:04:54;;;;;;;;;0.00;0.00;;;;;20.94;56.21;101141.22;6088737;23;46057;-82
2021/08/15 06:07:20;;;;;;;;;0.00;0.00;;;;;21.35;55.59;101195.66;6088954;23;45365;-80
2021/08/15 06:09:45;;;;;;;;;0.00;0.00;;;;;21.41;55.45;101199.91;6087191;23;54778;-81
2021/08/15 06:12:10;;;;;;;;;0.00;0.00;;;;;21.48;55.42;101204.97;6087955;23;45313;-83
2021/08/15 06:14:36;;;;;;;;;0.25;0.00;;;;;21.51;55.25;101196.94;6088362;23;45381;-83
2021/08/15 06:17:02;;;;;;;;;0.00;0.00;;;;;21.65;54.81;101208.88;6087893;23;45765;-80
2021/08/15 06:19:28;;;;;;;;;0.00;0.00;;;;;21.73;55.30;101206.00;6088335;23;45340;-83
2021/08/15 06:21:53;;;;;;;;;0.75;0.75;;;;;21.61;54.46;101194.88;6088081;23;45348;-81
2021/08/15 06:24:18;;;;;;;;;0.50;0.50;;;;;21.68;54.92;101210.59;6088088;23;45344;-78
2021/08/15 06:26:44;;;;;;;;;0.00;0.00;;;;;21.69;54.71;101194.63;6087615;23;46264;-81
2021/08/15 06:29:09;;;;;;;;;0.25;0.00;;;;;21.71;54.60;101190.16;6087937;23;45333;-81
2021/08/15 06:31:34;;;;;;;;;0.00;0.00;;;;;21.59;54.04;101179.94;6088623;23;45260;-82
2021/08/15 06:34:00;;;;;;;;;1.00;1.00;;;;;21.56;54.51;101194.13;6088673;23;45268;-82
2021/08/15 06:36:26;;;;;;;;;0.00;0.00;;;;;21.63;54.44;101211.56;6088748;23;46072;-81
2021/08/15 06:38:51;;;;;;;;;0.00;0.00;;;;;21.60;54.48;101211.69;6089388;23;45277;-82
2021/08/15 06:41:17;;;;;;;;;0.00;0.00;;;;;21.68;54.37;101207.94;6090307;23;45348;-82
2021/08/15 06:43:42;;;;;;;;;0.00;0.00;;;;;21.71;54.25;101200.75;6088274;23;45283;-81
2021/08/15 06:46:08;;;;;;;;;0.00;0.00;;;;;21.71;54.38;101186.66;6090125;23;46122;-81
2021/08/15 06:48:33;;;;;;;;;0.25;0.25;;;;;21.64;54.22;101167.41;6089601;23;45408;-79
2021/08/15 06:50:59;;;;;;;;;0.00;0.00;;;;;21.75;53.87;101189.16;6090205;23;45214;-78
2021/08/15 06:53:29;;;;;;;;;0.00;0.00;;;;;21.83;53.67;101196.00;6089884;23;45215;-80
2021/08/15 06:55:56;;;;;;;;;0.00;0.00;;;;;21.90;53.82;101198.41;6089900;23;45808;-79
2021/08/15 06:58:22;;;;;;;;;0.00;0.00;;;;;21.94;53.50;101187.72;6087487;23;45344;-77
2021/08/15 07:00:47;;;;;;;;;0.50;0.00;;;;;22.03;53.68;101198.03;6085230;23;45555;-77
2021/08/15 07:03:12;;;;;;;;;0.00;0.00;;;;;22.13;54.04;101193.28;6083733;23;45483;-78
2021/08/15 07:05:38;;;;;;;;;0.25;0.00;;;;;22.18;53.80;101191.38;6085497;23;51952;-78
2021/08/15 07:08:03;;;;;;;;;0.00;0.00;;;;;22.22;53.84;101189.47;6088168;23;45316;-78
2021/08/15 07:10:29;;;;;;;;;0.00;0.00;;;;;22.25;53.48;101192.88;6085086;23;45521;-77
2021/08/15 07:12:55;;;;;;;;;1.50;0.25;;;;;22.41;53.38;101205.63;6089086;23;46806;-77
2021/08/15 07:15:28;;;;;;;;;0.00;0.00;;;;;22.03;53.19;101145.88;6088819;23;45599;-78
2021/08/15 07:17:55;;;;;;;;;1.00;0.00;;;;;22.44;53.05;101216.13;6086860;23;45408;-75
2021/08/15 07:20:20;;;;;;;;;0.75;0.75;;;;;22.39;53.08;101195.06;6088472;23;45554;-76
2021/08/15 07:22:47;;;;;;;;;1.00;0.00;;;;;22.45;52.80;101190.47;6088285;23;45311;-75
2021/08/15 07:25:13;;;;;;;;;0.25;0.00;;;;;22.50;53.21;101204.44;6088471;23;45961;-75
2021/08/15 07:27:39;;;;;;;;;1.50;1.00;;;;;22.46;53.21;101198.38;6086911;23;45402;-75
2021/08/15 07:30:05;;;;;;;;;0.00;0.00;;;;;22.55;53.11;101201.63;6087104;23;45605;-74
2021/08/15 07:32:30;;;;;;;;;0.00;0.00;;;;;22.59;52.92;101206.81;6089218;23;45356;-75
2021/08/15 07:34:56;;;;;;;;;0.00;0.00;;;;;22.62;52.50;101197.88;6087919;23;47185;-75
2021/08/15 07:37:21;;;;;;;;;0.00;0.00;;;;;22.75;52.87;101196.53;6089545;23;45412;-75
2021/08/15 07:39:46;;;;;;;;;0.00;0.00;;;;;22.90;52.35;101199.53;6088521;23;45291;-75
2021/08/15 07:42:12;;;;;;;;;0.00;0.00;;;;;22.98;52.31;101200.16;6089250;23;45373;-75
2021/08/15 07:44:37;;;;;;;;;0.00;0.00;;;;;23.04;51.95;101197.25;6088541;23;45301;-75
2021/08/15 07:47:03;;;;;;;;;0.00;0.00;;;;;23.07;51.66;101177.72;6088429;23;45236;-75
2021/08/15 07:49:28;;;;;;;;;0.00;0.00;;;;;23.19;51.21;101176.38;6088447;23;45363;-76
2021/08/15 07:51:53;;;;;;;;;0.50;0.00;;;;;23.07;51.09;101142.31;6088767;23;45431;-75
2021/08/15 07:54:19;;;;;;;;;0.00;0.00;;;;;23.48;51.20;101193.00;6088656;23;46086;-76
2021/08/15 07:56:44;;;;;;;;;0.00;0.00;;;;;23.60;50.76;101199.66;6088699;23;45332;-75
2021/08/15 07:59:10;;;;;;;;;0.00;0.00;;;;;23.73;50.51;101202.69;6088787;23;45254;-75
2021/08/15 08:01:36;;;;;;;;;0.00;0.00;;;;;23.83;50.28;101202.31;6087349;23;45289;-75
2021/08/15 08:04:01;;;;;;;;;2.00;0.00;;;;;23.69;50.01;101173.63;6088588;23;45671;-76
2021/08/15 08:06:27;;;;;;;;;0.50;0.00;;;;;23.77;49.78;101169.72;6087239;23;45330;-75
2021/08/15 08:08:52;;;;;;;;;2.25;0.00;;;;;23.95;49.71;101182.34;6089276;23;45312;-75
2021/08/15 08:11:17;;;;;;;;;0.00;0.00;;;;;23.91;49.76;101165.66;6088909;23;45329;-78
2021/08/15 08:13:44;;;;;;;;;1.00;0.00;;;;;24.14;49.59;101185.16;6088463;23;45298;-79
2021/08/15 08:16:09;;;;;;;;;0.00;0.00;;;;;24.22;49.40;101187.50;6089748;22;45309;-76
2021/08/15 08:18:35;;;;;;;;;0.00;0.00;;;;;24.15;49.03;101176.22;6089435;23;45325;-77
2021/08/15 08:21:00;;;;;;;;;0.00;0.00;;;;;24.23;49.11;101175.91;6089538;23;45400;-78
2021/08/15 08:23:25;;;;;;;;;0.00;0.00;;;;;24.22;48.84;101142.28;6088962;23;47241;-76
2021/08/15 08:25:51;;;;;;;;;0.00;0.00;;;;;24.49;48.67;101182.78;6089716;23;45191;-78
2021/08/15 08:28:16;;;;;;;;;0.00;0.00;;;;;24.59;49.03;101172.59;6089297;23;45205;-78
2021/08/15 08:30:42;;;;;;;;;0.00;0.00;;;;;24.55;48.16;101165.69;6088738;23;45223;-77
2021/08/15 08:33:08;;;;;;;;;0.00;0.00;;;;;24.72;48.39;101180.91;6088094;23;46546;-78
2021/08/15 08:35:33;;;;;;;;;0.75;0.75;;;;;24.71;48.28;101154.38;6089160;23;45186;-77
2021/08/15 08:37:59;;;;;;;;;0.00;0.00;;;;;24.89;48.25;101168.66;6088792;23;49480;-77
2021/08/15 08:40:24;;;;;;;;;0.00;0.00;;;;;24.95;47.46;101167.50;6089350;23;45262;-77
2021/08/15 08:42:50;;;;;;;;;0.00;0.00;;;;;25.08;47.18;101175.81;6088779;23;45332;-76
2021/08/15 08:45:24;;;;;;;;;0.00;0.00;;;;;25.18;47.09;101171.81;6088461;23;45387;-77
2021/08/15 08:47:51;;;;;;;;;0.00;0.00;;;;;25.09;47.13;101151.78;6086466;23;45384;-78
2021/08/15 08:50:17;;;;;;;;;0.00;0.00;;;;;25.14;47.05;101151.56;6089291;23;45374;-78
2021/08/15 08:52:43;;;;;;;;;0.75;0.00;;;;;25.29;47.05;101166.84;6088709;23;46186;-78
2021/08/15 08:55:09;;;;;;;;;0.00;0.00;;;;;25.32;47.31;101173.81;6088594;23;45268;-78
2021/08/15 08:57:34;;;;;;;;;1.00;1.00;;;;;25.34;47.33;101171.94;6088424;23;45259;-77
2021/08/15 09:00:00;;;;;;;;;0.00;0.00;;;;;25.39;46.63;101171.72;6088024;23;45252;-79
2021/08/15 09:02:25;;;;;;;;;0.25;0.00;;;;;25.43;46.60;101157.31;6087279;23;46319;-80
2021/08/15 09:04:51;;;;;;;;;0.00;0.00;;;;;25.56;46.30;101166.47;6088288;23;45325;-79
2021/08/15 09:07:21;;;;;;;;;0.00;0.00;;;;;25.67;46.16;101157.94;6087071;23;45337;-78
2021/08/15 09:09:58;;;;;;;;;0.00;0.00;;;;;25.79;46.16;101159.16;6088386;23;45477;-79
2021/08/15 09:13:00;;;;;;;;;0.00;0.00;;;;;25.81;45.50;101141.28;6087777;23;46154;-79
2021/08/15 09:15:26;;;;;;;;;0.00;0.00;;;;;25.97;46.16;101140.50;6102886;23;45423;-80
2021/08/15 09:17:52;;;;;;;;;0.00;0.00;;;;;26.08;46.41;101136.44;6088489;23;45350;-78
2021/08/15 09:20:23;;;;;;;;;0.00;0.00;;;;;26.26;45.20;101142.66;6088614;23;45291;-78
2021/08/15 09:22:49;;;;;;;;;0.00;0.00;;;;;26.19;45.48;101120.78;6088607;23;46559;-80
2021/08/15 09:25:21;;;;;;;;;0.00;0.00;;;;;26.36;45.12;101133.25;6088581;23;45237;-79
2021/08/15 09:27:50;;;;;;;;;0.00;0.00;;;;;26.36;45.06;101125.25;6088548;23;45237;-81
2021/08/15 09:30:18;;;;;;;;;0.00;0.00;;;;;26.52;44.90;101133.31;6088495;23;45365;-81
2021/08/15 09:33:03;;;;;;;;;0.00;0.00;;;;;26.63;45.32;101129.19;6085574;23;46731;-83
2021/08/15 09:35:38;;;;;;;;;0.00;0.00;;;;;26.71;44.29;101127.00;6088508;23;45385;-82
2021/08/15 09:38:15;;;;;;;;;0.00;0.00;;;;;26.82;44.73;101132.63;6087101;23;45427;-82
2021/08/15 09:40:46;;;;;;;;;0.00;0.00;;;;;26.81;44.67;101103.31;6087386;23;45656;-82
2021/08/15 09:43:23;;;;;;;;;0.00;0.00;;;;;26.69;44.17;101076.34;6088436;23;45341;-82
2021/08/15 09:45:49;;;;;;;;;0.00;0.00;;;;;26.79;44.03;101071.38;6088234;23;45434;-81
2021/08/15 09:48:24;;;;;;;;;0.00;0.00;;;;;27.13;44.38;101127.41;6089046;23;45304;-82
2021/08/15 09:51:12;;;;;;;;;0.00;0.00;;;;;27.17;43.92;101114.75;6089013;23;45404;-82
2021/08/15 09:53:44;;;;;;;;;0.00;0.00;;;;;26.85;44.09;101069.31;6088357;23;46427;-83
2021/08/15 09:56:10;;;;;;;;;1.00;0.00;;;;;27.22;44.19;101114.50;6088484;23;45311;-82
2021/08/15 09:58:36;;;;;;;;;0.00;0.00;;;;;27.25;44.57;101114.34;6089738;23;45289;-81
2021/08/15 10:01:04;;;;;;;;;0.50;0.50;;;;;27.24;45.00;101104.59;6088492;23;45274;-82
2021/08/15 10:03:30;;;;;;;;;2.75;0.50;;;;;27.09;45.13;101060.88;6087936;23;47066;-82
2021/08/15 10:05:56;;;;;;;;;0.00;0.00;;;;;27.44;44.71;101115.00;6088755;23;45361;-82
2021/08/15 10:08:23;;;;;;;;;1.50;0.75;;;;;27.50;44.18;101116.47;6086509;23;45386;-82
2021/08/15 10:10:49;;;;;;;;;0.50;0.50;;;;;27.23;44.80;101054.78;6089252;23;45305;-81
2021/08/15 10:13:17;;;;;;;;;0.75;0.75;;;;;27.56;43.93;101110.75;6090377;23;45294;-82
2021/08/15 10:15:51;;;;;;;;;2.00;0.00;;;;;27.61;43.91;101107.81;6088652;23;45321;-83
2021/08/15 10:18:16;;;;;;;;;0.00;0.00;;;;;27.65;43.78;101095.19;6088666;23;45220;-83
2021/08/15 10:20:42;;;;;;;;;0.00;0.00;;;;;27.36;43.94;101044.22;6090748;23;45246;-83
2021/08/15 10:23:09;;;;;;;;;0.50;0.50;;;;;27.23;44.12;101010.22;6090138;23;46264;-83
2021/08/15 10:25:41;;;;;;;;;3.00;0.00;;;;;27.81;43.96;101109.34;6091334;23;45381;-82
2021/08/15 10:28:08;;;;;;;;;0.00;0.00;;;;;27.75;44.93;101087.47;6090931;23;45268;-83
2021/08/15 10:30:34;;;;;;;;;0.50;0.00;;;;;27.77;44.54;101097.13;6090199;23;45266;-83
2021/08/15 10:32:59;;;;;;;;;2.50;0.00;;;;;27.75;44.32;101091.03;6089709;23;45261;-82
2021/08/15 10:35:31;;;;;;;;;1.00;1.00;;;;;27.82;43.96;101095.06;6090573;23;45356;-82
2021/08/15 10:38:00;;;;;;;;;1.00;1.00;;;;;27.17;44.53;100965.16;6090810;23;45188;-83
2021/08/15 10:40:38;;;;;;;;;0.25;0.25;;;;;28.02;43.82;101074.25;6091324;23;45292;-83
2021/08/15 10:43:04;;;;;;;;;0.00;0.00;;;;;28.00;43.96;101073.50;6090324;23;46494;-83
2021/08/15 10:45:29;;;;;;;;;2.25;1.00;;;;;27.50;44.59;101016.72;6089781;23;45612;-83
2021/08/15 10:48:18;;;;;;;;;0.00;0.00;;;;;27.80;44.77;101063.97;6090199;23;45339;-82
2021/08/15 10:50:47;;;;;;;;;0.00;0.00;;;;;27.77;44.48;101064.16;6101157;23;45362;-82
2021/08/15 10:53:27;;;;;;;;;0.00;0.00;;;;;27.84;44.74;101065.56;6089447;23;46341;-82
2021/08/15 10:55:54;;;;;;;;;0.00;0.00;;;;;28.00;44.46;101046.75;6088300;23;46162;-82
2021/08/15 10:58:40;;;;;;;;;0.50;0.50;;;;;28.17;44.07;101052.88;6090095;23;45204;-82
2021/08/15 11:01:10;;;;;;;;;0.50;0.00;;;;;28.25;44.06;101042.56;6090602;23;45323;-82
2021/08/15 11:03:57;;;;;;;;;1.75;1.00;;;;;28.13;43.92;101019.22;6090145;23;46143;-82
2021/08/15 11:06:31;;;;;;;;;2.00;0.00;;;;;28.28;43.84;101046.88;6087828;23;45800;-82
2021/08/15 11:09:07;;;;;;;;;2.00;0.75;;;;;27.61;43.49;100935.84;6090119;23;45372;-83
2021/08/15 11:11:35;;;;;;;;;0.25;0.00;;;;;28.31;43.63;101041.34;6090420;23;45524;-81
2021/08/15 11:14:19;;;;;;;;;0.00;0.00;;;;;28.42;43.07;101035.34;6063202;23;48178;-83
2021/08/15 11:16:55;;;;;;;;;2.75;1.00;;;;;28.13;42.25;100971.06;6089846;23;45485;-82
2021/08/15 11:19:21;;;;;;;;;1.50;1.00;;;;;28.62;42.13;101039.44;6089983;23;45361;-81
2021/08/15 11:22:36;;;;;;;;;0.00;0.00;;;;;28.60;42.06;101033.31;6089918;23;45482;-82
2021/08/15 11:25:03;;;;;;;;;0.25;0.25;;;;;28.63;41.96;101037.63;5948446;23;47482;-81